Time;durP1;ratioP1;P1;durP2;ratioP2;P2;SDS_P1;SDS_P2;PMS_P1;PMS_P2;Temp;Humidity;BMP_temperature;BMP_pressure;BME280_temperature;BME280_humidity;BME280_pressure;Samples;Min_cycle;Max_cycle;Signal;HPM_P1;HPM_P2
2021/04/19 00:00:18;;;;;;;10.88;5.03;;;;;;;9.71;46.11;100327.75;5004849;28;20034;-60
2021/04/19 00:02:44;;;;;;;10.32;5.00;;;;;;;9.44;47.87;100321.91;5001576;28;20315;-58
2021/04/19 00:05:14;;;;;;;8.95;5.20;;;;;;;9.24;47.29;100274.66;5000508;28;20307;-59
2021/04/19 00:07:39;;;;;;;6.78;4.78;;;;;;;9.52;47.60;100321.00;4991613;28;20267;-60
2021/04/19 00:10:07;;;;;;;8.82;4.78;;;;;;;9.38;47.83;100319.38;5024528;28;20026;-59
2021/04/19 00:12:33;;;;;;;7.65;5.03;;;;;;;9.40;47.64;100325.38;5024331;28;20029;-59
2021/04/19 00:14:59;;;;;;;8.57;5.45;;;;;;;9.36;47.08;100328.00;5009733;28;20093;-60
2021/04/19 00:17:26;;;;;;;9.80;4.75;;;;;;;9.36;47.90;100328.84;5006609;28;20082;-60
2021/04/19 00:19:52;;;;;;;9.07;5.25;;;;;;;9.31;47.62;100335.78;5024555;28;20022;-60
2021/04/19 00:22:17;;;;;;;7.30;4.53;;;;;;;9.05;48.24;100344.53;5024058;28;20092;-59
2021/04/19 00:24:44;;;;;;;6.35;4.78;;;;;;;9.01;48.61;100344.53;5014656;28;20035;-59
2021/04/19 00:27:10;;;;;;;9.05;5.18;;;;;;;8.89;48.73;100340.28;4984979;28;20323;-59
2021/04/19 00:29:36;;;;;;;5.10;4.15;;;;;;;9.02;48.81;100339.38;5007753;28;20057;-59
2021/04/19 00:32:04;;;;;;;13.80;4.80;;;;;;;9.21;48.13;100344.47;4984894;28;20030;-61
2021/04/19 00:34:30;;;;;;;9.55;4.70;;;;;;;9.20;48.61;100334.97;4984419;28;20031;-61
2021/04/19 00:36:56;;;;;;;6.13;4.30;;;;;;;8.86;49.05;100332.53;4991559;28;20030;-61
2021/04/19 00:39:23;;;;;;;10.30;4.80;;;;;;;8.76;48.66;100335.16;5021552;28;20034;-62
2021/04/19 00:41:49;;;;;;;10.40;4.90;;;;;;;8.71;49.01;100334.31;5023629;28;20052;-62
2021/04/19 00:44:15;;;;;;;8.57;4.45;;;;;;;8.87;48.09;100327.38;5015512;28;20264;-61
2021/04/19 00:46:41;;;;;;;7.05;4.47;;;;;;;8.80;48.03;100336.84;5004033;28;20053;-61
2021/04/19 00:49:07;;;;;;;6.38;4.10;;;;;;;8.73;49.21;100342.91;5019183;28;20113;-60
2021/04/19 00:51:33;;;;;;;5.65;3.92;;;;;;;8.78;48.77;100338.59;5023709;28;20037;-61
2021/04/19 00:54:01;;;;;;;9.95;3.95;;;;;;;8.72;48.36;100345.50;5023615;28;20038;-60
2021/04/19 00:56:28;;;;;;;7.70;3.92;;;;;;;8.75;49.33;100340.31;5011052;28;20309;-60
2021/04/19 00:58:54;;;;;;;6.63;3.92;;;;;;;8.71;48.73;100347.22;5015909;28;20042;-60
2021/04/19 01:01:20;;;;;;;6.85;4.32;;;;;;;8.90;49.07;100340.25;5023367;28;20073;-59
2021/04/19 01:03:46;;;;;;;7.13;4.10;;;;;;;8.71;49.32;100346.38;5003670;28;20123;-59
2021/04/19 01:06:12;;;;;;;7.68;3.83;;;;;;;8.52;48.69;100345.56;5003735;28;20084;-60
2021/04/19 01:08:39;;;;;;;8.35;3.58;;;;;;;8.61;48.58;100346.41;5014531;28;20191;-59
2021/04/19 01:11:04;;;;;;;6.65;3.50;;;;;;;8.44;50.12;100345.56;5023310;28;20210;-58
2021/04/19 01:13:30;;;;;;;5.15;3.70;;;;;;;8.35;49.32;100349.00;5020582;28;20030;-60
2021/04/19 01:15:56;;;;;;;6.35;3.80;;;;;;;8.33;49.58;100349.88;4983978;28;20262;-60
2021/04/19 01:18:22;;;;;;;6.05;3.95;;;;;;;8.39;49.24;100353.28;4994625;28;20042;-61
2021/04/19 01:20:50;;;;;;;7.13;3.65;;;;;;;8.49;49.30;100350.72;5003405;28;20380;-60
2021/04/19 01:23:16;;;;;;;13.32;5.22;;;;;;;8.50;49.92;100350.72;5003248;28;20101;-60
2021/04/19 01:25:43;;;;;;;6.72;3.80;;;;;;;8.43;49.75;100346.41;5003494;28;20097;-60
2021/04/19 01:28:09;;;;;;;6.80;3.90;;;;;;;8.36;49.54;100335.22;5003457;28;20206;-59
2021/04/19 01:30:38;;;;;;;4.82;3.58;;;;;;;8.17;50.69;100362.78;4968276;28;20041;-59
2021/04/19 01:33:05;;;;;;;6.35;4.00;;;;;;;8.28;50.20;100344.72;4983881;28;20053;-59
2021/04/19 01:35:32;;;;;;;7.38;3.72;;;;;;;8.28;50.64;100349.88;4983348;28;20304;-60
2021/04/19 01:37:58;;;;;;;6.95;3.78;;;;;;;8.31;49.80;100355.03;5002784;28;20030;-60
2021/04/19 01:40:24;;;;;;;6.95;3.50;;;;;;;8.25;50.33;100343.00;5022845;28;20037;-60
2021/04/19 01:42:50;;;;;;;5.88;3.33;;;;;;;8.19;50.62;100355.88;5022754;28;20050;-59
2021/04/19 01:45:17;;;;;;;4.78;3.45;;;;;;;8.03;50.80;100349.88;4992193;28;20031;-60
2021/04/19 01:47:45;;;;;;;7.22;3.35;;;;;;;8.05;50.79;100355.91;4988590;28;20018;-60
2021/04/19 01:50:14;;;;;;;4.80;3.20;;;;;;;7.91;50.79;100306.91;5022759;28;20057;-60
2021/04/19 01:52:40;;;;;;;5.35;3.28;;;;;;;8.08;51.22;100353.34;5022815;28;20042;-61
2021/04/19 01:55:09;;;;;;;6.30;3.60;;;;;;;7.92;51.35;100346.44;5022606;28;20064;-59
2021/04/19 01:57:38;;;;;;;8.30;3.42;;;;;;;7.91;50.79;100339.59;5021357;28;20026;-58
2021/04/19 02:00:07;;;;;;;5.68;3.55;;;;;;;8.00;51.53;100349.88;5002962;28;20101;-58
2021/04/19 02:02:42;;;;;;;5.28;3.60;;;;;;;8.02;50.93;100350.72;5001816;28;20195;-58
2021/04/19 02:05:43;;;;;;;5.43;3.45;;;;;;;7.95;51.09;100339.59;4996034;28;20022;-60
2021/04/19 02:08:29;;;;;;;6.32;3.42;;;;;;;8.02;50.46;100337.00;5008449;28;20315;-62
2021/04/19 02:11:06;;;;;;;6.00;3.47;;;;;;;7.76;51.03;100292.28;5022471;28;20041;-61
2021/04/19 02:14:08;;;;;;;7.28;4.13;;;;;;;8.03;51.76;100338.72;5021741;28;20051;-60
2021/04/19 02:16:55;;;;;;;6.97;3.13;;;;;;;8.16;50.52;100347.31;5005493;28;20096;-60
2021/04/19 02:19:47;;;;;;;6.22;3.65;;;;;;;7.97;50.67;100323.22;5021711;28;20036;-60
2021/04/19 02:22:19;;;;;;;8.13;3.72;;;;;;;7.71;50.79;100293.16;5009151;28;20034;-61
2021/04/19 02:24:49;;;;;;;5.53;3.60;;;;;;;8.07;50.62;100350.75;5023607;28;20038;-61
2021/04/19 02:27:30;;;;;;;7.90;3.63;;;;;;;8.20;50.74;100356.75;5006800;28;20033;-61
2021/04/19 02:29:59;;;;;;;5.93;3.40;;;;;;;8.19;51.38;100355.88;5005895;28;20062;-61
2021/04/19 02:32:29;;;;;;;4.63;3.05;;;;;;;7.63;51.06;100288.00;4987209;28;20086;-61
2021/04/19 02:35:00;;;;;;;6.40;3.58;;;;;;;7.59;51.80;100291.44;4986320;28;20050;-61
2021/04/19 02:37:30;;;;;;;5.45;2.95;;;;;;;7.68;51.06;100286.28;4986802;28;20346;-60
2021/04/19 02:39:58;;;;;;;4.22;3.08;;;;;;;8.04;51.56;100356.78;5025446;28;20053;-60
2021/04/19 02:42:25;;;;;;;8.55;3.70;;;;;;;8.05;51.57;100360.19;5025825;28;20041;-59
2021/04/19 02:44:53;;;;;;;6.35;3.00;;;;;;;8.21;50.80;100358.47;5025967;28;20030;-59
2021/04/19 02:47:21;;;;;;;4.00;2.97;;;;;;;8.04;51.83;100355.91;5008440;28;20034;-61
2021/04/19 02:49:48;;;;;;;4.18;2.92;;;;;;;7.95;51.92;100354.19;5008122;28;20030;-61
2021/04/19 02:52:16;;;;;;;6.43;3.95;;;;;;;7.54;52.45;100303.44;5006291;28;20057;-61
2021/04/19 02:54:45;;;;;;;4.53;3.25;;;;;;;8.08;51.45;100342.13;5006250;28;20026;-62
2021/04/19 02:57:25;;;;;;;7.07;2.85;;;;;;;7.67;51.55;100289.72;5006166;28;20102;-62
2021/04/19 02:59:53;;;;;;;4.00;3.10;;;;;;;7.92;51.75;100361.91;5023127;28;20068;-61
2021/04/19 03:02:24;;;;;;;8.02;3.00;;;;;;;7.81;52.14;100355.88;5005943;28;20041;-61
2021/04/19 03:04:51;;;;;;;6.60;2.65;;;;;;;7.80;51.88;100341.31;5006133;28;20141;-61
2021/04/19 03:07:20;;;;;;;6.15;3.38;;;;;;;7.73;51.35;100301.75;5006110;28;20053;-61
2021/04/19 03:09:52;;;;;;;3.42;2.72;;;;;;;8.02;51.68;100357.63;5007966;28;20031;-61
2021/04/19 03:12:19;;;;;;;;;;;;;;;8.08;51.65;100355.91;5006067;28;20041;-61
2021/04/19 03:14:54;;;;;;;3.40;2.80;;;;;;;7.85;52.44;100337.88;5001080;28;19977;-61
2021/04/19 03:17:22;;;;;;;6.80;3.45;;;;;;;7.80;52.29;100367.09;4985913;28;20039;-62
2021/04/19 03:20:07;;;;;;;5.28;2.38;;;;;;;7.99;52.30;100357.63;5000518;28;20283;-60
2021/04/19 03:22:36;;;;;;;6.30;2.97;;;;;;;7.97;52.12;100357.63;5005672;28;20315;-60
2021/04/19 03:25:04;;;;;;;5.70;2.72;;;;;;;8.01;51.83;100353.31;5005593;28;20061;-62
2021/04/19 03:27:33;;;;;;;7.15;3.08;;;;;;;7.85;51.81;100304.34;5005170;28;20097;-63
2021/04/19 03:30:00;;;;;;;4.25;2.88;;;;;;;8.22;52.04;100360.19;4999144;28;20048;-59
2021/04/19 03:32:32;;;;;;;3.70;2.60;;;;;;;7.86;52.15;100356.75;4986142;28;20030;-61
2021/04/19 03:35:01;;;;;;;;;;;;;;;8.23;52.50;100373.09;4986428;28;20113;-61
2021/04/19 03:37:32;;;;;;;4.47;2.80;;;;;;;7.72;52.75;100321.50;4985781;28;19917;-62
2021/04/19 03:40:14;;;;;;;5.95;3.00;;;;;;;7.76;52.69;100309.47;4996223;28;20034;-60
2021/04/19 03:42:42;;;;;;;5.40;3.20;;;;;;;8.00;53.09;100356.78;4986030;28;20047;-60
2021/04/19 03:45:11;;;;;;;6.28;2.95;;;;;;;8.32;52.22;100372.22;4985654;28;20066;-61
2021/04/19 03:47:39;;;;;;;5.07;2.92;;;;;;;8.26;51.93;100383.41;4968258;28;20247;-60
2021/04/19 03:50:06;;;;;;;6.05;2.88;;;;;;;8.22;52.85;100373.09;5003868;28;20274;-60
2021/04/19 03:52:39;;;;;;;4.38;2.60;;;;;;;8.00;52.24;100324.09;5005016;28;20323;-59
2021/04/19 03:55:11;;;;;;;6.53;3.38;;;;;;;8.28;52.05;100355.03;5004934;28;20312;-61
2021/04/19 03:57:41;;;;;;;6.07;2.70;;;;;;;8.29;51.89;100373.09;5005406;28;20042;-61
2021/04/19 04:00:12;;;;;;;6.45;3.40;;;;;;;8.31;51.77;100329.22;4991106;28;20168;-61
2021/04/19 04:02:43;;;;;;;6.18;3.30;;;;;;;8.11;51.60;100322.38;4985186;28;20415;-62
2021/04/19 04:05:11;;;;;;;6.35;3.05;;;;;;;8.33;51.86;100379.09;4985460;28;20093;-60
2021/04/19 04:07:42;;;;;;;6.03;2.80;;;;;;;8.42;51.43;100373.94;4985203;28;20035;-61
2021/04/19 04:10:10;;;;;;;6.63;3.30;;;;;;;8.44;52.22;100366.19;4999044;28;20030;-61
2021/04/19 04:12:36;;;;;;;7.45;3.05;;;;;;;8.74;52.19;100370.47;4985303;28;20030;-63
2021/04/19 04:15:04;;;;;;;7.75;3.08;;;;;;;8.72;51.40;100371.31;4985237;28;20031;-62
2021/04/19 04:17:30;;;;;;;3.72;3.00;;;;;;;8.89;50.93;100363.53;4984980;28;20076;-62
2021/04/19 04:19:57;;;;;;;4.85;2.72;;;;;;;8.84;51.48;100360.13;5001787;28;20026;-60
2021/04/19 04:22:23;;;;;;;5.65;4.05;;;;;;;8.99;50.60;100365.19;5004784;28;20085;-60
2021/04/19 04:24:49;;;;;;;6.70;2.83;;;;;;;9.17;50.70;100366.00;5004736;28;20026;-61
2021/04/19 04:27:16;;;;;;;5.25;2.80;;;;;;;9.27;50.43;100367.69;5004418;28;20072;-61
2021/04/19 04:29:42;;;;;;;5.78;2.65;;;;;;;9.42;49.38;100370.19;4997962;28;20031;-61
2021/04/19 04:32:08;;;;;;;7.72;2.70;;;;;;;9.02;51.09;100359.16;4984529;28;20033;-61
2021/04/19 04:34:34;;;;;;;5.30;2.95;;;;;;;9.32;50.16;100374.53;4986921;28;20323;-61
2021/04/19 04:37:01;;;;;;;7.70;2.50;;;;;;;9.28;50.84;100366.81;4984524;28;20061;-61
2021/04/19 04:39:27;;;;;;;4.63;2.72;;;;;;;9.43;49.57;100361.53;4994422;28;20340;-61
2021/04/19 04:41:53;;;;;;;8.10;3.10;;;;;;;9.49;49.36;100368.41;4996507;28;20038;-61
2021/04/19 04:44:28;;;;;;;7.40;3.10;;;;;;;8.79;50.96;100306.75;5021214;28;20230;-60
2021/04/19 04:47:23;;;;;;;8.13;3.10;;;;;;;9.05;50.24;100326.44;5017301;28;20061;-60
2021/04/19 04:50:20;;;;;;;8.65;3.35;;;;;;;9.28;50.24;100317.72;5017386;28;20431;-62
2021/04/19 04:53:00;;;;;;;5.88;2.78;;;;;;;9.01;50.39;100323.84;5004878;28;20111;-60
2021/04/19 04:55:28;;;;;;;6.95;2.58;;;;;;;9.26;50.22;100374.59;5021474;28;20318;-60
2021/04/19 04:57:55;;;;;;;9.77;2.83;;;;;;;9.37;50.06;100369.34;5021955;28;20033;-60
2021/04/19 05:00:22;;;;;;;4.80;2.45;;;;;;;9.50;49.85;100378.75;4999536;28;20042;-61
2021/04/19 05:02:50;;;;;;;5.40;2.72;;;;;;;9.42;50.29;100380.53;5003084;28;20393;-60
2021/04/19 05:05:17;;;;;;;4.10;2.67;;;;;;;9.60;49.16;100386.44;5003340;28;20227;-60
2021/04/19 05:07:45;;;;;;;2.85;2.35;;;;;;;8.95;49.37;100325.63;5003447;28;20030;-61
2021/04/19 05:10:12;;;;;;;4.95;2.70;;;;;;;9.66;49.08;100374.34;5020928;28;20374;-62
2021/04/19 05:12:39;;;;;;;7.93;2.90;;;;;;;9.69;49.18;100381.25;5022939;28;20237;-62
2021/04/19 05:15:09;;;;;;;7.28;3.33;;;;;;;9.88;49.42;100378.53;5023130;28;20083;-60
2021/04/19 05:17:39;;;;;;;8.10;2.75;;;;;;;9.70;49.74;100393.28;5023159;28;20037;-60
2021/04/19 05:20:07;;;;;;;9.48;2.90;;;;;;;9.71;49.88;100376.91;5014691;28;20040;-62
2021/04/19 05:22:34;;;;;;;6.00;2.63;;;;;;;10.03;49.13;100378.38;5021356;28;20136;-59
2021/04/19 05:24:59;;;;;;;7.80;2.70;;;;;;;10.12;48.84;100375.72;5010015;28;20030;-60
2021/04/19 05:27:26;;;;;;;5.07;2.65;;;;;;;9.95;48.69;100367.25;5001514;28;20033;-60
2021/04/19 05:29:54;;;;;;;6.78;2.80;;;;;;;9.52;49.46;100373.59;5015523;28;20040;-61
2021/04/19 05:32:21;;;;;;;5.40;2.50;;;;;;;9.89;49.34;100380.22;5020981;28;20030;-60
2021/04/19 05:34:49;;;;;;;7.35;2.72;;;;;;;9.83;48.75;100363.88;5021083;28;20265;-60
2021/04/19 05:37:19;;;;;;;5.50;2.67;;;;;;;10.19;48.31;100373.97;5016192;28;20041;-62
2021/04/19 05:39:45;;;;;;;5.85;2.60;;;;;;;9.81;48.25;100378.53;5016580;28;20044;-60
2021/04/19 05:42:14;;;;;;;6.18;2.60;;;;;;;10.04;49.25;100374.09;5022126;28;20105;-61
2021/04/19 05:44:41;;;;;;;6.60;2.78;;;;;;;10.03;48.23;100378.38;5022587;28;20339;-60
2021/04/19 05:47:08;;;;;;;5.43;2.30;;;;;;;9.97;49.21;100375.84;5017966;28;20056;-61
2021/04/19 05:49:34;;;;;;;5.90;2.55;;;;;;;10.09;47.98;100373.19;5022158;28;20042;-61
2021/04/19 05:52:03;;;;;;;4.00;2.05;;;;;;;9.91;48.81;100373.31;5022289;28;20033;-60
2021/04/19 05:54:30;;;;;;;5.53;2.35;;;;;;;9.73;49.34;100384.66;5022012;28;20064;-60
2021/04/19 05:57:20;;;;;;;4.93;2.42;;;;;;;9.86;49.19;100396.63;5018528;28;20103;-60
2021/04/19 05:59:52;;;;;;;5.00;2.15;;;;;;;9.78;49.39;100393.25;5022237;28;20037;-61
2021/04/19 06:02:47;;;;;;;4.90;2.25;;;;;;;9.79;48.38;100393.22;5022192;28;20226;-60
2021/04/19 06:05:23;;;;;;;3.28;2.33;;;;;;;9.64;48.08;100337.28;4991955;28;20034;-60
2021/04/19 06:08:03;;;;;;;4.93;2.20;;;;;;;9.90;47.97;100405.22;5022231;28;20041;-61
2021/04/19 06:10:38;;;;;;;4.78;2.08;;;;;;;9.75;47.96;100344.97;5022051;28;20065;-61
2021/04/19 06:13:07;;;;;;;6.80;2.20;;;;;;;9.82;48.14;100341.47;5010861;28;20039;-62
2021/04/19 06:15:35;;;;;;;7.38;2.30;;;;;;;10.38;48.26;100416.09;5002342;28;20102;-62
2021/04/19 06:18:01;;;;;;;4.47;2.42;;;;;;;10.47;46.85;100387.50;5002561;28;20030;-61
2021/04/19 06:20:28;;;;;;;3.97;2.15;;;;;;;10.32;47.86;100405.78;5020432;28;20040;-60
2021/04/19 06:22:55;;;;;;;2.50;1.77;;;;;;;9.89;48.46;100412.13;5021760;28;20339;-60
2021/04/19 06:25:22;;;;;;;3.72;2.00;;;;;;;10.09;47.54;100401.63;5017671;28;20033;-60
2021/04/19 06:27:49;;;;;;;5.38;2.45;;;;;;;10.42;46.39;100404.84;5021912;28;20072;-61
2021/04/19 06:30:15;;;;;;;3.55;2.47;;;;;;;10.59;45.85;100398.63;5008824;28;20081;-62
2021/04/19 06:32:42;;;;;;;3.50;2.00;;;;;;;10.46;46.50;100408.25;5002281;28;20040;-61
2021/04/19 06:35:09;;;;;;;7.10;2.30;;;;;;;10.39;46.29;100406.59;5002298;28;20066;-61
2021/04/19 06:37:35;;;;;;;6.03;2.40;;;;;;;10.86;46.00;100405.28;5002299;28;20026;-61
2021/04/19 06:40:02;;;;;;;7.07;2.70;;;;;;;11.05;45.36;100400.72;5018700;28;20072;-62
2021/04/19 06:42:29;;;;;;;6.65;2.30;;;;;;;10.77;45.86;100393.25;5021560;28;20330;-61
2021/04/19 06:44:55;;;;;;;6.20;2.55;;;;;;;11.12;45.01;100399.78;5021815;28;20076;-61
2021/04/19 06:47:22;;;;;;;8.80;4.10;;;;;;;10.95;45.78;100399.97;5001684;28;20262;-62
2021/04/19 06:49:49;;;;;;;4.55;3.00;;;;;;;11.32;44.48;100407.31;5014498;28;20244;-61
2021/04/19 06:52:17;;;;;;;3.75;2.20;;;;;;;11.01;44.25;100352.41;5021921;28;20194;-61
2021/04/19 06:54:44;;;;;;;9.10;2.75;;;;;;;11.78;43.42;100389.41;5021854;28;20025;-61
2021/04/19 06:57:12;;;;;;;3.72;2.47;;;;;;;12.01;42.80;100387.31;5021957;28;20222;-61
2021/04/19 06:59:42;;;;;;;7.10;2.55;;;;;;;13.03;41.83;100379.44;4992574;28;20031;-61
2021/04/19 07:02:16;;;;;;;4.93;2.85;;;;;;;13.26;40.73;100391.97;5001659;28;20030;-62
2021/04/19 07:04:43;;;;;;;4.85;2.30;;;;;;;13.15;39.95;100388.75;5002781;28;20106;-62
2021/04/19 07:07:14;;;;;;;5.63;2.53;;;;;;;12.78;39.83;100385.13;5005773;28;20038;-63
2021/04/19 07:09:42;;;;;;;4.07;2.28;;;;;;;12.63;41.18;100343.81;5016274;28;20026;-62
2021/04/19 07:12:10;;;;;;;5.72;2.47;;;;;;;13.41;38.85;100396.88;5012139;28;20026;-62
2021/04/19 07:14:38;;;;;;;5.97;2.70;;;;;;;14.13;38.71;100393.50;5005852;28;20373;-62
2021/04/19 07:17:05;;;;;;;3.95;2.20;;;;;;;13.50;38.51;100400.19;5005545;28;20022;-63
2021/04/19 07:19:32;;;;;;;3.58;2.65;;;;;;;14.51;38.01;100391.69;5014346;28;20088;-62
2021/04/19 07:21:58;;;;;;;2.90;2.20;;;;;;;14.76;36.01;100396.25;5024988;28;20046;-63
2021/04/19 07:24:27;;;;;;;6.38;2.67;;;;;;;14.18;37.35;100399.47;5007722;28;20326;-62
2021/04/19 07:26:57;;;;;;;3.22;2.10;;;;;;;14.15;37.03;100418.63;5025041;28;20037;-63
2021/04/19 07:29:25;;;;;;;4.57;2.60;;;;;;;14.62;36.85;100405.31;5018435;28;20057;-63
2021/04/19 07:31:55;;;;;;;4.70;2.53;;;;;;;15.25;35.00;100405.31;5005355;28;20038;-63
2021/04/19 07:34:24;;;;;;;6.03;3.10;;;;;;;14.62;36.20;100394.88;5005158;28;20096;-63
2021/04/19 07:36:59;;;;;;;4.32;2.47;;;;;;;15.16;35.76;100385.56;5005243;28;20192;-62
2021/04/19 07:39:28;;;;;;;5.47;2.67;;;;;;;15.47;34.75;100417.72;5012754;28;20026;-62
2021/04/19 07:41:57;;;;;;;6.45;3.00;;;;;;;15.48;35.36;100354.19;5015311;28;20054;-63
2021/04/19 07:44:43;;;;;;;4.68;2.75;;;;;;;14.46;35.92;100363.09;5004876;28;20040;-63
2021/04/19 07:47:26;;;;;;;5.05;3.22;;;;;;;14.58;36.76;100398.44;5018443;28;20322;-62
2021/04/19 07:50:01;;;;;;;8.13;3.45;;;;;;;15.02;35.66;100398.13;5024597;28;20222;-62
2021/04/19 07:52:29;;;;;;;7.82;3.38;;;;;;;14.39;35.54;100402.41;5024728;28;20022;-62
2021/04/19 07:55:13;;;;;;;8.63;4.32;;;;;;;15.21;34.62;100348.91;5024355;28;20018;-63
2021/04/19 07:57:40;;;;;;;9.00;3.92;;;;;;;13.76;37.06;100420.41;5023946;28;20052;-63
2021/04/19 08:00:08;;;;;;;12.98;6.70;;;;;;;14.52;35.71;100364.69;5020045;28;20029;-62
2021/04/19 08:02:35;;;;;;;8.20;3.22;;;;;;;13.70;35.57;100421.41;5024452;28;20033;-62
2021/04/19 08:05:04;;;;;;;10.18;4.32;;;;;;;13.83;35.68;100418.53;5024149;28;20038;-62
2021/04/19 08:07:32;;;;;;;5.35;2.60;;;;;;;13.39;36.43;100421.22;5004608;28;20105;-62
2021/04/19 08:10:07;;;;;;;4.57;2.22;;;;;;;12.19;37.71;100380.13;5015687;28;20097;-62
2021/04/19 08:12:40;;;;;;;10.23;3.63;;;;;;;12.53;37.96;100424.56;5023457;28;20029;-62
2021/04/19 08:15:13;;;;;;;7.80;3.22;;;;;;;13.55;37.30;100412.22;5006459;28;20072;-62
2021/04/19 08:17:40;;;;;;;7.72;4.13;;;;;;;14.11;35.90;100411.78;4988403;28;20072;-63
2021/04/19 08:20:15;;;;;;;7.38;3.08;;;;;;;13.13;37.08;100406.97;5017141;28;20030;-63
2021/04/19 08:22:41;;;;;;;7.15;3.67;;;;;;;13.08;37.07;100417.47;5006836;28;20066;-62
2021/04/19 08:25:19;;;;;;;5.55;2.60;;;;;;;13.27;37.42;100404.94;5004315;28;20038;-62
2021/04/19 08:28:06;;;;;;;5.57;2.70;;;;;;;12.88;37.38;100375.41;5004185;28;20030;-62
2021/04/19 08:30:33;;;;;;;6.43;3.17;;;;;;;12.85;37.63;100407.50;5014927;28;20334;-62
2021/04/19 08:33:00;;;;;;;6.45;2.78;;;;;;;12.53;38.00;100395.97;5003133;28;20277;-63
2021/04/19 08:35:26;;;;;;;4.85;3.05;;;;;;;13.20;37.36;100399.91;5023411;28;20033;-62
2021/04/19 08:37:55;;;;;;;5.72;3.05;;;;;;;12.81;37.51;100394.59;5014983;28;20038;-61
2021/04/19 08:40:23;;;;;;;3.88;2.70;;;;;;;13.40;37.54;100392.56;5019812;28;20025;-61
2021/04/19 08:42:49;;;;;;;5.93;3.00;;;;;;;13.92;35.98;100393.16;5023835;28;20105;-61
2021/04/19 08:45:15;;;;;;;5.47;3.05;;;;;;;13.35;36.58;100394.41;5016972;28;20142;-61
2021/04/19 08:47:41;;;;;;;7.72;2.55;;;;;;;13.37;36.24;100378.78;5003956;28;20034;-61
2021/04/19 08:50:08;;;;;;;7.40;2.90;;;;;;;13.61;36.46;100390.38;5020469;28;20031;-62
2021/04/19 08:52:36;;;;;;;5.65;3.38;;;;;;;13.75;35.98;100379.63;5023410;28;20030;-61
2021/04/19 08:55:06;;;;;;;5.85;2.95;;;;;;;14.02;36.67;100387.69;5023411;28;20141;-62
2021/04/19 08:57:34;;;;;;;5.80;3.13;;;;;;;14.21;34.60;100325.56;5019880;28;20030;-62
2021/04/19 09:00:00;;;;;;;3.38;2.38;;;;;;;13.77;34.77;100386.53;5011502;28;20221;-63
2021/04/19 09:02:28;;;;;;;6.53;2.58;;;;;;;13.25;35.63;100403.25;5015141;28;20092;-62
2021/04/19 09:05:09;;;;;;;9.43;3.40;;;;;;;13.41;36.02;100337.03;5023347;28;20072;-62
2021/04/19 09:07:39;;;;;;;6.10;2.60;;;;;;;13.69;35.02;100335.53;5009020;28;20042;-63
2021/04/19 09:10:08;;;;;;;4.97;2.72;;;;;;;12.65;36.08;100335.13;5010629;28;20592;-62
2021/04/19 09:12:34;;;;;;;4.20;2.40;;;;;;;12.99;36.40;100375.19;5020332;28;20030;-63
2021/04/19 09:15:26;;;;;;;6.53;2.92;;;;;;;13.38;35.68;100324.09;5013857;28;20026;-62
2021/04/19 09:18:06;;;;;;;3.85;2.65;;;;;;;13.20;35.16;100382.56;5011820;28;20393;-62
2021/04/19 09:20:46;;;;;;;7.18;3.00;;;;;;;13.01;35.13;100324.88;5008938;28;20101;-62
2021/04/19 09:23:20;;;;;;;9.57;2.50;;;;;;;13.02;36.18;100369.94;5013576;28;20057;-62
2021/04/19 09:25:46;;;;;;;11.93;2.67;;;;;;;13.33;35.36;100371.91;5011785;28;20029;-62
2021/04/19 09:28:12;;;;;;;9.88;3.15;;;;;;;13.88;35.27;100370.66;4995086;28;20018;-62
2021/04/19 09:30:45;;;;;;;7.35;3.50;;;;;;;13.88;35.14;100323.81;5011378;28;20029;-62
2021/04/19 09:33:11;;;;;;;5.88;3.00;;;;;;;13.13;35.03;100389.63;4992618;28;20026;-62
2021/04/19 09:35:40;;;;;;;6.97;3.28;;;;;;;13.30;35.68;100370.22;5004389;28;20386;-60
2021/04/19 09:38:32;;;;;;;6.13;3.28;;;;;;;13.56;35.03;100369.66;4992878;28;20270;-62
2021/04/19 09:41:01;;;;;;;10.40;3.53;;;;;;;13.08;35.31;100367.19;5000236;28;20026;-62
2021/04/19 09:43:32;;;;;;;8.43;3.22;;;;;;;13.02;35.67;100386.38;5003095;28;20106;-61
2021/04/19 09:46:25;;;;;;;7.50;3.40;;;;;;;12.92;35.52;100336.31;5010121;28;20069;-60
2021/04/19 09:49:05;;;;;;;6.45;3.35;;;;;;;13.36;35.04;100377.06;5005091;28;20283;-62
2021/04/19 09:51:37;;;;;;;8.60;3.60;;;;;;;13.37;35.17;100308.53;5003590;28;20034;-62
2021/04/19 09:54:16;;;;;;;7.25;3.63;;;;;;;13.42;35.44;100376.91;5006602;28;20028;-62
2021/04/19 09:56:48;;;;;;;7.03;4.25;;;;;;;13.61;35.06;100382.56;5009522;28;20338;-62
2021/04/19 09:59:27;;;;;;;7.13;3.47;;;;;;;13.54;35.52;100378.38;4993525;28;20097;-62
2021/04/19 10:01:58;;;;;;;4.60;2.97;;;;;;;13.06;35.23;100374.19;5004106;28;20223;-63
2021/04/19 10:04:25;;;;;;;4.50;3.30;;;;;;;13.23;34.98;100387.69;5003016;28;20029;-60
2021/04/19 10:07:00;;;;;;;5.93;2.50;;;;;;;12.98;35.77;100331.88;5004143;28;20114;-61
2021/04/19 10:09:29;;;;;;;5.82;3.03;;;;;;;12.81;35.94;100322.66;4989678;28;20226;-62
2021/04/19 10:12:00;;;;;;;5.47;2.63;;;;;;;12.78;35.24;100323.63;5007172;28;20025;-61
2021/04/19 10:14:27;;;;;;;5.05;3.50;;;;;;;13.52;35.73;100373.22;5013240;28;20251;-61
2021/04/19 10:16:53;;;;;;;4.47;2.88;;;;;;;13.32;34.47;100398.78;5003411;28;20218;-61
2021/04/19 10:19:30;;;;;;;6.85;3.55;;;;;;;13.32;35.51;100401.41;5004789;28;20030;-62
2021/04/19 10:22:05;;;;;;;7.00;2.95;;;;;;;13.24;34.09;100328.69;5022051;28;20030;-61
2021/04/19 10:24:33;;;;;;;6.63;3.80;;;;;;;13.90;35.52;100378.44;5012153;28;20093;-62
2021/04/19 10:26:58;;;;;;;8.07;3.10;;;;;;;13.97;33.90;100365.22;5002685;28;20041;-63
2021/04/19 10:29:27;;;;;;;5.88;3.30;;;;;;;14.09;34.35;100371.03;5004956;28;20306;-62
2021/04/19 10:32:01;;;;;;;4.38;3.10;;;;;;;14.11;34.48;100335.38;5022232;28;20038;-62
2021/04/19 10:34:30;;;;;;;5.03;3.50;;;;;;;14.35;33.08;100359.09;5004860;28;20284;-60
2021/04/19 10:37:06;;;;;;;5.25;3.00;;;;;;;13.85;33.80;100373.31;5023776;28;20026;-61
2021/04/19 10:39:33;;;;;;;7.10;3.42;;;;;;;13.90;34.44;100368.88;5024297;28;20156;-63
2021/04/19 10:42:04;;;;;;;5.22;3.33;;;;;;;13.49;34.10;100307.38;5006352;28;20208;-61
2021/04/19 10:44:45;;;;;;;6.75;3.10;;;;;;;14.02;35.06;100370.31;4989038;28;20038;-62
2021/04/19 10:47:13;;;;;;;6.65;3.50;;;;;;;14.18;34.02;100368.19;5025241;28;20033;-62
2021/04/19 10:49:40;;;;;;;4.93;2.70;;;;;;;14.22;33.74;100350.72;5022195;28;20263;-62
2021/04/19 10:52:08;;;;;;;13.63;9.75;;;;;;;14.32;32.73;100307.91;5024099;28;20033;-62
2021/04/19 10:54:37;;;;;;;6.15;3.10;;;;;;;14.00;34.39;100358.25;5005921;28;20026;-60
2021/04/19 10:57:05;;;;;;;7.22;3.70;;;;;;;14.04;33.27;100375.47;5015849;28;20030;-63
2021/04/19 10:59:32;;;;;;;6.15;2.85;;;;;;;13.90;33.88;100379.28;5023349;28;20080;-62
2021/04/19 11:02:02;;;;;;;9.10;4.78;;;;;;;13.66;33.80;100314.81;5010966;28;20025;-62
2021/04/19 11:04:28;;;;;;;6.47;3.70;;;;;;;14.49;33.29;100359.56;5013073;28;20040;-61
2021/04/19 11:06:56;;;;;;;6.68;2.95;;;;;;;14.49;33.06;100355.22;5021117;28;20026;-62
2021/04/19 11:09:27;;;;;;;4.47;2.60;;;;;;;13.96;33.31;100383.50;5024972;28;20265;-62
2021/04/19 11:11:53;;;;;;;7.85;3.25;;;;;;;13.99;33.76;100359.97;5017475;28;20050;-61
2021/04/19 11:14:20;;;;;;;8.57;2.72;;;;;;;14.20;33.81;100357.75;5004566;28;20060;-61
2021/04/19 11:16:53;;;;;;;6.45;2.72;;;;;;;14.17;33.06;100303.97;5005815;28;20234;-62
2021/04/19 11:19:36;;;;;;;6.13;2.10;;;;;;;14.11;33.71;100327.56;5006699;28;20030;-62
2021/04/19 11:22:32;;;;;;;6.22;2.38;;;;;;;14.38;33.14;100365.09;5025153;28;20026;-59
2021/04/19 11:25:33;;;;;;;6.10;3.47;;;;;;;14.50;33.31;100348.25;4999534;28;20050;-61
2021/04/19 11:28:29;;;;;;;5.70;2.85;;;;;;;14.73;32.53;100352.03;4944184;29;20096;-60
2021/04/19 11:30:56;;;;;;;8.77;3.05;;;;;;;14.90;31.84;100346.31;5030413;28;20101;-59
2021/04/19 11:33:27;;;;;;;5.38;2.40;;;;;;;14.24;33.19;100368.03;4994637;28;20026;-60
2021/04/19 11:36:06;;;;;;;4.53;2.53;;;;;;;13.74;33.85;100360.56;5043026;28;20036;-58
2021/04/19 11:38:35;;;;;;;4.00;2.47;;;;;;;13.42;33.93;100317.06;5017276;28;20029;-60
2021/04/19 11:41:04;;;;;;;5.03;2.60;;;;;;;13.88;33.59;100357.66;5024034;28;20030;-59
2021/04/19 11:43:32;;;;;;;6.53;2.80;;;;;;;13.72;32.44;100370.16;5025099;28;20118;-60